Time;durP1;ratioP1;P1;durP2;ratioP2;P2;SDS_P1;SDS_P2;PMS_P1;PMS_P2;Temp;Humidity;BMP_temperature;BMP_pressure;BME280_temperature;BME280_humidity;BME280_pressure;Samples;Min_cycle;Max_cycle;Signal;HPM_P1;HPM_P2
2022/01/01 00:01:51;;;;;;;12.20;5.80;;;;;;;11.92;96.41;101339.56;103611;1313;75071;-79
2022/01/01 00:04:18;;;;;;;13.30;6.80;;;;;;;11.93;96.23;101330.20;103931;1313;71243;-77
2022/01/01 00:06:44;;;;;;;12.20;6.10;;;;;;;11.95;95.89;101337.95;103808;1313;74001;-81
2022/01/01 00:09:11;;;;;;;9.70;4.90;;;;;;;11.97;95.69;101332.08;103912;1316;58753;-78
2022/01/01 00:11:37;;;;;;;10.20;5.60;;;;;;;11.97;95.48;101338.76;104051;1310;58167;-78
2022/01/01 00:14:04;;;;;;;12.10;6.00;;;;;;;11.97;95.52;101334.52;103844;1313;58409;-78
2022/01/01 00:16:30;;;;;;;8.80;5.30;;;;;;;11.99;95.30;101340.02;103663;1316;57814;-80
2022/01/01 00:18:57;;;;;;;13.00;6.00;;;;;;;12.00;95.14;101336.70;103884;1310;73853;-78
2022/01/01 00:21:24;;;;;;;13.30;6.00;;;;;;;12.00;95.13;101345.00;103743;1310;61937;-79
2022/01/01 00:23:51;;;;;;;10.10;5.00;;;;;;;12.00;94.98;101350.27;103950;1310;61460;-78
2022/01/01 00:26:17;;;;;;;9.20;5.40;;;;;;;12.01;95.01;101340.85;103898;1313;75517;-80
2022/01/01 00:28:44;;;;;;;11.50;6.30;;;;;;;12.02;94.90;101343.20;103677;1313;72293;-78
2022/01/01 00:31:11;;;;;;;13.30;6.40;;;;;;;12.02;94.81;101348.19;103733;1314;73971;-79
2022/01/01 00:33:37;;;;;;;9.30;4.50;;;;;;;12.01;95.02;101357.46;103756;1310;63386;-79
2022/01/01 00:36:04;;;;;;;11.00;6.20;;;;;;;12.01;94.87;101354.84;103774;1313;58077;-80
2022/01/01 00:38:31;;;;;;;12.80;6.50;;;;;;;12.00;94.97;101352.06;103645;1313;74245;-80
2022/01/01 00:41:00;;;;;;;11.80;5.50;;;;;;;12.01;95.09;101355.90;103738;1313;72378;-81
2022/01/01 00:43:27;;;;;;;10.70;5.80;;;;;;;12.00;94.79;101353.84;103801;1313;74397;-78
2022/01/01 00:45:54;;;;;;;11.30;5.80;;;;;;;12.02;94.69;101355.11;103708;1313;58104;-77
2022/01/01 00:48:20;;;;;;;9.70;5.80;;;;;;;12.01;94.88;101358.20;103948;1313;58091;-80
2022/01/01 00:50:47;;;;;;;8.30;5.40;;;;;;;12.01;94.86;101348.09;103673;1313;75097;-80
2022/01/01 00:53:14;;;;;;;10.90;5.60;;;;;;;12.00;94.92;101356.14;103819;1313;71360;-79
2022/01/01 00:55:41;;;;;;;12.30;5.80;;;;;;;12.00;94.67;101357.92;103425;1313;72918;-80
2022/01/01 00:58:07;;;;;;;11.40;5.50;;;;;;;12.00;94.82;101351.52;103803;1311;58103;-79
2022/01/01 01:00:34;;;;;;;13.30;5.30;;;;;;;11.98;94.45;101358.10;103798;1313;58018;-81
2022/01/01 01:03:07;;;;;;;10.70;5.50;;;;;;;11.99;94.63;101357.83;103614;1319;74973;-79
2022/01/01 01:05:34;;;;;;;13.40;6.20;;;;;;;11.99;94.58;101367.05;103728;1319;70205;-80
2022/01/01 01:08:01;;;;;;;10.00;6.20;;;;;;;12.01;94.75;101372.59;103783;1312;58095;-81
2022/01/01 01:10:27;;;;;;;15.80;6.10;;;;;;;12.02;94.40;101367.14;103636;1316;63422;-81
2022/01/01 01:12:54;;;;;;;9.40;5.20;;;;;;;12.03;94.36;101371.43;103951;1310;58405;-80
2022/01/01 01:15:20;;;;;;;12.00;5.30;;;;;;;12.04;94.34;101365.98;103656;1313;74067;-80
2022/01/01 01:17:49;;;;;;;11.60;5.80;;;;;;;12.06;94.20;101373.99;103605;1312;72326;-79
2022/01/01 01:20:16;;;;;;;16.80;6.40;;;;;;;12.06;94.09;101369.36;103718;1313;73534;-81
2022/01/01 01:22:43;;;;;;;13.90;6.60;;;;;;;12.05;94.18;101372.12;103444;1316;62260;-82
2022/01/01 01:25:13;;;;;;;12.90;6.30;;;;;;;12.04;94.25;101376.12;103668;1307;59896;-79
2022/01/01 01:27:40;;;;;;;9.10;5.30;;;;;;;12.04;94.40;101384.42;103584;1313;74160;-79
2022/01/01 01:30:13;;;;;;;12.00;5.80;;;;;;;12.04;94.31;101388.72;103585;1313;71715;-80
2022/01/01 01:32:40;;;;;;;14.40;7.00;;;;;;;12.06;94.31;101381.96;103870;1310;73096;-80
2022/01/01 01:35:09;;;;;;;8.40;5.70;;;;;;;12.07;94.32;101380.07;103700;1317;64376;-80
2022/01/01 01:37:36;;;;;;;12.80;6.50;;;;;;;12.09;93.98;101385.11;103819;1313;61455;-81
2022/01/01 01:40:03;;;;;;;11.10;5.80;;;;;;;12.12;93.93;101379.72;103750;1312;74651;-81
2022/01/01 01:42:31;;;;;;;13.80;6.30;;;;;;;12.13;93.90;101382.38;103650;1313;71250;-81
2022/01/01 01:44:58;;;;;;;14.70;6.60;;;;;;;12.14;93.80;101379.42;103661;1313;73889;-80
2022/01/01 01:47:30;;;;;;;14.30;6.80;;;;;;;12.14;93.69;101373.60;103461;1315;63402;-81
2022/01/01 01:49:58;;;;;;;14.90;6.60;;;;;;;12.15;93.66;101380.38;103626;1301;63155;-80
2022/01/01 01:52:31;;;;;;;12.90;7.30;;;;;;;12.14;93.60;101381.55;103447;1315;75159;-79
2022/01/01 01:54:59;;;;;;;12.30;6.00;;;;;;;12.16;93.48;101382.09;103599;1310;71820;-80
2022/01/01 01:57:26;;;;;;;10.50;6.10;;;;;;;12.16;93.10;101388.60;103591;1313;72757;-81
2022/01/01 01:59:53;;;;;;;11.90;6.90;;;;;;;12.16;93.37;101384.50;103436;1316;63194;-82
2022/01/01 02:02:19;;;;;;;12.00;7.30;;;;;;;12.16;93.17;101380.66;103737;1313;60250;-81
2022/01/01 02:04:47;;;;;;;11.50;6.00;;;;;;;12.17;93.26;101385.00;103757;1312;75143;-81
2022/01/01 02:07:13;;;;;;;14.80;6.70;;;;;;;12.16;93.07;101386.70;103655;1315;72400;-80
2022/01/01 02:09:40;;;;;;;11.80;6.00;;;;;;;12.16;93.31;101379.79;103773;1312;73942;-81
2022/01/01 02:12:08;;;;;;;13.00;7.50;;;;;;;12.14;93.55;101392.45;103914;1310;61033;-80
2022/01/01 02:17:29;;;;;;;12.60;7.20;;;;;;;12.14;93.33;101393.64;103752;1310;74078;-81
2022/01/01 02:20:02;;;;;;;14.70;7.10;;;;;;;12.14;93.17;101392.36;103683;1311;71113;-80
2022/01/01 02:22:47;;;;;;;15.30;6.20;;;;;;;12.15;93.09;101390.33;103836;1316;73009;-82
2022/01/01 02:25:15;;;;;;;12.20;6.20;;;;;;;12.17;93.07;101402.73;103808;1313;61891;-83
2022/01/01 02:27:42;;;;;;;14.40;7.10;;;;;;;12.18;93.02;101405.29;103663;1311;60517;-82
2022/01/01 02:30:11;;;;;;;12.70;6.50;;;;;;;12.19;92.84;101411.00;103762;1311;74057;-80
2022/01/01 02:32:38;;;;;;;11.80;6.70;;;;;;;12.21;92.82;101415.42;103366;1319;71937;-83
2022/01/01 02:35:08;;;;;;;11.90;6.10;;;;;;;12.22;92.69;101409.23;103539;1318;74067;-80
2022/01/01 02:37:36;;;;;;;12.20;5.70;;;;;;;12.23;92.65;101414.92;103677;1316;61908;-81
2022/01/01 02:40:04;;;;;;;10.00;6.00;;;;;;;12.24;92.40;101421.81;103701;1297;61922;-82
2022/01/01 02:42:31;;;;;;;13.00;6.20;;;;;;;12.24;92.43;101425.86;104218;1293;76524;-82
2022/01/01 02:44:59;;;;;;;15.40;7.10;;;;;;;12.24;92.39;101426.92;104345;1295;72600;-80
2022/01/01 02:47:26;;;;;;;17.50;7.60;;;;;;;12.22;92.29;101432.82;103658;1297;75104;-81
2022/01/01 02:49:52;;;;;;;11.10;6.70;;;;;;;12.22;92.53;101428.42;103682;1299;131993;-80
2022/01/01 02:52:19;;;;;;;13.60;6.60;;;;;;;12.18;92.43;101426.49;103705;1295;58302;-79
2022/01/01 02:54:45;;;;;;;14.10;7.10;;;;;;;12.18;92.61;101423.17;103892;1295;58323;-81
2022/01/01 02:57:15;;;;;;;15.10;6.80;;;;;;;12.18;92.39;101423.66;103367;1298;66624;-80
2022/01/01 02:59:41;;;;;;;12.20;6.40;;;;;;;12.18;92.34;101426.39;103639;1307;75294;-81
2022/01/01 03:02:08;;;;;;;12.70;6.40;;;;;;;12.17;92.58;101433.58;103505;1315;60923;-82
2022/01/01 03:04:35;;;;;;;12.40;5.90;;;;;;;12.17;92.46;101428.77;103512;1313;60552;-82
2022/01/01 03:07:02;;;;;;;13.80;6.60;;;;;;;12.17;92.34;101434.77;103762;1311;74631;-81
2022/01/01 03:09:34;;;;;;;9.90;5.00;;;;;;;12.17;92.52;101437.60;103640;1312;71250;-81
2022/01/01 03:12:09;;;;;;;13.70;6.20;;;;;;;12.17;92.57;101436.04;103712;1311;72959;-81
2022/01/01 03:14:37;;;;;;;13.40;6.50;;;;;;;12.18;92.46;101443.02;103748;1313;63320;-81
2022/01/01 03:17:05;;;;;;;12.70;6.30;;;;;;;12.18;92.29;101448.71;103504;1315;60711;-82
2022/01/01 03:19:32;;;;;;;13.30;7.20;;;;;;;12.18;92.33;101439.60;103506;1315;73070;-82
2022/01/01 03:22:00;;;;;;;13.90;5.90;;;;;;;12.18;92.15;101436.11;103664;1312;69912;-80
2022/01/01 03:24:27;;;;;;;15.00;6.20;;;;;;;12.20;92.18;101433.61;103607;1315;73967;-79
2022/01/01 03:26:55;;;;;;;11.90;5.70;;;;;;;12.21;91.77;101437.77;103380;1315;62986;-80
2022/01/01 03:29:25;;;;;;;11.70;5.90;;;;;;;12.21;91.67;101437.40;103405;1315;60496;-80
2022/01/01 03:31:52;;;;;;;10.40;6.00;;;;;;;12.21;91.90;101436.17;103526;1313;74331;-81
2022/01/01 03:36:49;;;;;;;13.90;6.50;;;;;;;12.19;91.71;101445.95;103932;1295;71805;-79
2022/01/01 03:39:15;;;;;;;13.70;6.00;;;;;;;12.18;91.61;101441.77;103331;1301;66089;-80
2022/01/01 03:41:42;;;;;;;17.10;7.00;;;;;;;12.19;91.78;101444.09;103566;1295;63004;-80
2022/01/01 03:44:09;;;;;;;14.50;7.70;;;;;;;12.18;91.69;101439.63;103772;1299;75607;-80
2022/01/01 03:46:35;;;;;;;12.50;6.30;;;;;;;12.18;91.55;101436.65;103825;1294;70629;-81
2022/01/01 03:49:01;;;;;;;12.00;6.70;;;;;;;12.19;91.35;101439.07;103761;1300;58867;-79
2022/01/01 03:51:28;;;;;;;16.80;7.20;;;;;;;12.19;91.23;101445.98;103779;1298;58280;-80
2022/01/01 03:53:59;;;;;;;19.00;9.40;;;;;;;12.19;91.56;101437.37;103831;1303;58274;-78
2022/01/01 03:56:26;;;;;;;14.00;6.40;;;;;;;12.20;91.34;101436.21;103798;1311;74637;-81
2022/01/01 03:58:53;;;;;;;12.70;6.00;;;;;;;12.22;91.49;101433.02;103880;1310;71509;-80
2022/01/01 04:01:20;;;;;;;17.10;6.80;;;;;;;12.21;91.09;101433.11;104017;1310;71866;-80
2022/01/01 04:03:47;;;;;;;14.50;6.70;;;;;;;12.19;91.19;101435.61;103644;1313;60271;-80
2022/01/01 04:06:13;;;;;;;13.60;6.30;;;;;;;12.16;91.49;101429.02;103977;1313;61002;-80
2022/01/01 04:08:40;;;;;;;10.80;6.50;;;;;;;12.14;91.48;101429.79;103446;1316;74055;-80
2022/01/01 04:11:06;;;;;;;11.70;5.90;;;;;;;12.11;91.54;101433.39;103898;1314;71316;-80
2022/01/01 04:13:33;;;;;;;12.60;4.70;;;;;;;12.08;91.60;101438.98;103548;1315;74103;-79
2022/01/01 04:16:00;;;;;;;14.20;6.50;;;;;;;12.07;91.73;101441.80;103597;1295;62183;-79
2022/01/01 04:18:37;;;;;;;13.40;6.60;;;;;;;12.06;91.65;101439.23;103721;1298;62387;-79
2022/01/01 04:20:57;;;;;;;13.90;6.40;;;;;;;12.06;91.89;101439.17;103755;1295;72634;-78
2022/01/01 04:23:23;;;;;;;18.70;6.60;;;;;;;12.04;91.96;101440.27;103848;1292;75244;-79
2022/01/01 04:25:50;;;;;;;15.70;6.90;;;;;;;12.03;92.14;101444.98;103776;1295;75379;-78
2022/01/01 04:28:17;;;;;;;12.40;5.40;;;;;;;12.02;92.18;101444.91;103691;1294;63086;-79
2022/01/01 04:30:43;;;;;;;12.80;5.30;;;;;;;12.02;92.12;101442.02;103847;1303;60662;-78
2022/01/01 04:33:10;;;;;;;15.00;6.10;;;;;;;12.02;92.45;101443.55;103407;1303;76661;-81
2022/01/01 04:35:41;;;;;;;13.10;6.40;;;;;;;12.00;92.42;101448.02;103550;1295;70410;-79
2022/01/01 04:38:18;;;;;;;15.10;7.20;;;;;;;12.01;92.57;101451.47;103642;1302;73042;-79
2022/01/01 04:40:45;;;;;;;19.60;7.00;;;;;;;12.01;92.73;101447.48;103662;1298;61189;-80
2022/01/01 04:43:11;;;;;;;14.30;7.00;;;;;;;12.02;92.92;101445.79;103866;1301;60635;-78
2022/01/01 04:45:38;;;;;;;12.60;6.10;;;;;;;12.02;92.83;101452.70;103691;1301;76705;-78
2022/01/01 04:48:05;;;;;;;11.90;5.40;;;;;;;12.03;92.75;101454.77;103648;1307;74000;-80
2022/01/01 04:50:37;;;;;;;14.50;6.90;;;;;;;12.03;92.92;101458.85;103740;1308;72844;-78
2022/01/01 04:53:03;;;;;;;13.70;6.40;;;;;;;12.03;92.90;101459.05;103762;1295;58050;-78
2022/01/01 04:55:30;;;;;;;18.40;8.00;;;;;;;12.02;92.90;101462.33;103584;1295;62921;-79
2022/01/01 04:58:02;;;;;;;19.90;8.10;;;;;;;12.01;93.04;101461.55;103910;1300;74291;-79
2022/01/01 05:00:28;;;;;;;15.00;6.90;;;;;;;12.00;93.09;101463.90;103904;1303;71533;-79
2022/01/01 05:02:55;;;;;;;21.20;8.70;;;;;;;11.99;93.02;101464.59;103798;1302;74831;-80
2022/01/01 05:05:24;;;;;;;17.00;6.90;;;;;;;12.00;93.05;101464.64;103631;1299;61988;-79
2022/01/01 05:07:54;;;;;;;12.10;6.90;;;;;;;11.97;93.02;101461.57;103756;1302;62862;-79
2022/01/01 05:10:21;;;;;;;14.30;6.60;;;;;;;11.98;93.07;101464.66;103712;1303;74280;-79
2022/01/01 05:12:48;;;;;;;10.70;6.60;;;;;;;11.99;92.98;101462.77;103640;1296;72354;-79
2022/01/01 05:15:14;;;;;;;15.40;7.20;;;;;;;11.99;92.98;101461.25;103580;1297;58195;-79
2022/01/01 05:17:44;;;;;;;14.60;6.20;;;;;;;11.99;92.93;101471.18;103519;1301;64583;-80
2022/01/01 05:20:21;;;;;;;;;;;;;;;;;;;;;
2022/01/01 05:22:46;;;;;;;13.10;6.60;;;;;;;11.97;93.10;101478.95;103578;1295;75274;-80
2022/01/01 05:25:13;;;;;;;13.00;6.00;;;;;;;11.96;93.02;101474.16;103822;1300;71309;-79
2022/01/01 05:27:44;;;;;;;11.80;6.90;;;;;;;11.96;93.25;101470.40;103762;1292;74118;-79
2022/01/01 05:30:11;;;;;;;14.20;7.70;;;;;;;11.95;93.20;101469.74;103615;1301;62454;-79
2022/01/01 05:32:38;;;;;;;13.60;6.60;;;;;;;11.95;93.03;101473.60;103653;1294;60296;-78
2022/01/01 05:35:05;;;;;;;13.10;5.70;;;;;;;11.94;93.11;101473.84;103585;1302;57775;-79
2022/01/01 05:39:57;;;;;;;15.80;7.30;;;;;;;11.91;93.23;101474.83;103467;1298;58386;-79
2022/01/01 05:42:24;;;;;;;15.40;6.50;;;;;;;11.90;93.13;101473.79;103514;1299;59488;-79
2022/01/01 05:44:50;;;;;;;15.30;5.30;;;;;;;11.87;93.20;101475.45;103580;1307;58224;-80
2022/01/01 05:47:17;;;;;;;13.50;5.60;;;;;;;11.84;93.23;101476.91;103581;1294;58462;-79
2022/01/01 05:49:43;;;;;;;17.20;7.70;;;;;;;11.82;93.34;101475.23;103594;1296;58242;-79
2022/01/01 05:52:10;;;;;;;13.40;6.70;;;;;;;11.80;93.34;101476.35;103593;1294;58831;-79
2022/01/01 05:54:37;;;;;;;16.60;6.50;;;;;;;11.77;93.57;101477.66;103730;1295;58275;-79
2022/01/01 05:57:08;;;;;;;21.30;6.40;;;;;;;11.77;93.63;101482.15;103930;1302;58240;31
2022/01/01 05:59:40;;;;;;;13.80;5.70;;;;;;;11.75;93.49;101479.50;103561;1302;74201;-79
2022/01/01 06:02:11;;;;;;;15.50;6.60;;;;;;;11.72;93.67;101483.21;103549;1307;73017;31
2022/01/01 06:04:38;;;;;;;16.80;6.80;;;;;;;11.70;93.91;101486.25;103542;1303;72426;-78
2022/01/01 06:07:07;;;;;;;16.60;6.10;;;;;;;11.69;93.86;101488.64;103794;1296;65781;-79
2022/01/01 06:09:33;;;;;;;13.90;6.40;;;;;;;11.67;94.02;101488.58;103609;1305;60174;-79
2022/01/01 06:12:00;;;;;;;11.50;5.20;;;;;;;11.65;93.99;101495.45;103671;1302;77733;-79
2022/01/01 06:14:27;;;;;;;15.20;7.40;;;;;;;11.64;94.25;101491.15;103940;1305;71464;-79
2022/01/01 06:16:54;;;;;;;10.90;5.20;;;;;;;11.64;94.53;101498.98;103644;1295;74096;-81
2022/01/01 06:19:21;;;;;;;16.50;7.90;;;;;;;11.65;94.44;101499.56;103571;1302;60771;-79
2022/01/01 06:21:48;;;;;;;17.60;6.90;;;;;;;11.63;94.37;101499.36;103665;1302;59762;-81
2022/01/01 06:24:14;;;;;;;18.10;7.40;;;;;;;11.63;94.49;101502.39;103460;1310;74970;-79
2022/01/01 06:26:41;;;;;;;17.10;6.90;;;;;;;11.62;94.45;101500.19;103719;1303;72207;-79
2022/01/01 06:29:08;;;;;;;19.80;7.40;;;;;;;11.61;94.53;101504.90;103673;1295;58981;-79
2022/01/01 06:31:34;;;;;;;13.40;6.30;;;;;;;11.62;94.74;101506.61;103510;1303;62158;-79
2022/01/01 06:34:01;;;;;;;18.50;7.60;;;;;;;11.64;94.94;101514.73;103810;1300;62926;-79
2022/01/01 06:36:28;;;;;;;19.50;7.20;;;;;;;11.64;94.76;101517.51;103871;1305;75970;-79
2022/01/01 06:39:00;;;;;;;19.10;6.00;;;;;;;11.67;94.99;101517.64;103814;1303;71442;-79
2022/01/01 06:41:26;;;;;;;14.80;5.60;;;;;;;11.68;94.91;101524.36;103584;1295;74651;-79
2022/01/01 06:43:53;;;;;;;16.40;6.40;;;;;;;11.71;94.75;101523.05;103722;1294;62251;-79
2022/01/01 06:46:20;;;;;;;15.20;6.80;;;;;;;11.71;94.83;101515.42;103680;1295;63056;-79
2022/01/01 06:48:47;;;;;;;17.40;6.80;;;;;;;11.73;94.60;101520.52;103668;1303;77238;-79
2022/01/01 06:51:14;;;;;;;16.30;5.90;;;;;;;11.75;94.61;101516.04;103439;1296;72399;-79
2022/01/01 06:53:41;;;;;;;14.90;6.30;;;;;;;11.74;94.24;101522.70;103591;1296;75128;-81
2022/01/01 06:56:08;;;;;;;17.20;7.00;;;;;;;11.73;94.47;101525.23;103720;1295;63334;-79
2022/01/01 07:01:08;;;;;;;14.10;7.10;;;;;;;11.77;94.14;101534.63;103632;1302;75828;-78
2022/01/01 07:06:04;;;;;;;19.90;8.80;;;;;;;11.79;93.75;101539.91;103582;1302;72006;-78
2022/01/01 07:11:01;;;;;;;13.80;8.80;;;;;;;11.80;93.72;101544.40;103748;1299;61514;-78
2022/01/01 07:13:27;;;;;;;17.90;8.40;;;;;;;11.79;93.66;101545.39;103589;1306;75333;-79
2022/01/01 07:15:59;;;;;;;23.70;8.00;;;;;;;11.78;93.65;101549.58;103571;1300;60707;-78
2022/01/01 07:18:30;;;;;;;21.40;8.20;;;;;;;11.77;93.88;101550.20;103502;1299;73385;31
2022/01/01 07:20:56;;;;;;;19.00;7.40;;;;;;;11.75;93.77;101553.27;103809;1300;62516;-79
2022/01/01 07:23:23;;;;;;;15.20;6.60;;;;;;;11.73;93.90;101558.03;103778;1301;60957;-78
2022/01/01 07:25:50;;;;;;;19.40;7.80;;;;;;;11.72;94.13;101557.13;103852;1302;75467;-80
2022/01/01 07:28:16;;;;;;;18.30;6.90;;;;;;;11.70;94.28;101559.61;103953;1301;71321;-79
2022/01/01 07:30:46;;;;;;;18.70;8.00;;;;;;;11.70;94.42;101560.75;103878;1302;73148;-78
2022/01/01 07:33:18;;;;;;;17.80;9.10;;;;;;;11.70;94.38;101563.51;103761;1295;62184;-78
2022/01/01 07:35:44;;;;;;;23.00;9.90;;;;;;;11.68;94.52;101562.44;103613;1295;60673;-78
2022/01/01 07:38:11;;;;;;;24.20;10.00;;;;;;;11.67;94.50;101568.94;103626;1303;77170;-78
2022/01/01 07:40:39;;;;;;;16.80;8.40;;;;;;;11.68;94.50;101566.55;103658;1303;58951;-78
2022/01/01 07:43:14;;;;;;;18.40;8.20;;;;;;;11.70;94.72;101567.26;103487;1302;74046;-78
2022/01/01 07:45:41;;;;;;;23.40;9.20;;;;;;;11.71;94.52;101573.73;103636;1302;64892;-80
2022/01/01 07:48:09;;;;;;;17.30;7.20;;;;;;;11.73;94.32;101577.70;103517;1297;61688;-79
2022/01/01 07:50:38;;;;;;;19.10;8.20;;;;;;;11.75;94.19;101580.14;103792;1304;75326;-81
2022/01/01 07:53:05;;;;;;;17.80;8.30;;;;;;;11.78;94.19;101581.12;103536;1308;72300;-78
2022/01/01 07:55:42;;;;;;;17.70;7.00;;;;;;;11.81;93.88;101588.05;103706;1294;71290;-80
2022/01/01 07:58:09;;;;;;;15.90;7.40;;;;;;;11.81;93.97;101588.53;103580;1308;62327;-78
2022/01/01 08:00:35;;;;;;;21.60;7.50;;;;;;;11.83;93.70;101590.65;103737;1302;62952;-79
2022/01/01 08:03:02;;;;;;;18.20;9.60;;;;;;;11.86;93.61;101596.45;103806;1312;74189;-79
2022/01/01 08:05:29;;;;;;;17.70;8.30;;;;;;;11.88;93.17;101599.09;103886;1312;72072;-80
2022/01/01 08:07:59;;;;;;;16.70;9.10;;;;;;;11.90;93.24;101600.32;103740;1312;73425;-79
2022/01/01 08:10:29;;;;;;;20.90;9.00;;;;;;;11.92;93.01;101600.95;103740;1312;62015;-80
2022/01/01 08:12:56;;;;;;;19.70;7.80;;;;;;;11.95;93.00;101601.66;103664;1312;60554;-80
2022/01/01 08:15:23;;;;;;;16.50;7.50;;;;;;;11.97;92.52;101608.02;103478;1313;74026;-80
2022/01/01 08:17:50;;;;;;;14.60;6.60;;;;;;;12.00;92.41;101607.89;103849;1312;71773;-80
2022/01/01 08:20:17;;;;;;;17.60;6.30;;;;;;;12.02;92.17;101613.65;103760;1311;73505;-80
2022/01/01 08:22:44;;;;;;;21.00;8.90;;;;;;;12.06;91.86;101613.30;103572;1315;62176;-80
2022/01/01 08:25:11;;;;;;;21.00;8.30;;;;;;;12.08;91.50;101613.63;103722;1312;61716;-80
2022/01/01 08:27:37;;;;;;;25.20;8.30;;;;;;;12.10;91.56;101616.11;103856;1310;75047;-79
2022/01/01 08:30:05;;;;;;;13.30;7.00;;;;;;;12.12;91.42;101617.96;103766;1311;72375;-80
2022/01/01 08:36:03;;;;;;;14.90;8.50;;;;;;;12.23;90.85;101625.47;103220;1297;600127;-82
2022/01/01 08:38:42;;;;;;;;;;;;;;;;;;;;;
2022/01/01 08:41:09;;;;;;;15.80;6.90;;;;;;;12.27;90.39;101630.30;104948;1286;61358;-87
2022/01/01 08:43:36;;;;;;;17.60;6.80;;;;;;;12.29;90.49;101633.08;105094;1280;73762;-79
2022/01/01 08:46:03;;;;;;;17.70;6.30;;;;;;;12.28;89.97;101634.54;105192;1279;74566;-86
2022/01/01 08:48:29;;;;;;;18.60;7.20;;;;;;;12.31;90.27;101635.70;104931;1277;330922;-84
2022/01/01 08:50:59;;;;;;;15.50;7.20;;;;;;;12.31;89.84;101640.33;105292;1274;60770;-81
2022/01/01 08:53:31;;;;;;;17.30;6.40;;;;;;;12.29;89.81;101642.84;105329;1275;60584;-81
2022/01/01 08:58:22;;;;;;;15.20;7.30;;;;;;;12.28;89.56;101639.20;106409;1274;57822;-79
2022/01/01 09:03:22;;;;;;;12.60;5.70;;;;;;;12.30;89.26;101639.32;105268;1276;62322;-82
2022/01/01 09:13:28;;;;;;;8.40;5.10;;;;;;;12.36;88.93;101643.85;105482;1274;74317;-80
2022/01/01 09:15:55;;;;;;;15.00;6.80;;;;;;;12.36;88.65;101635.17;106895;1276;64330;-79
2022/01/01 09:21:11;;;;;;;10.60;5.00;;;;;;;12.42;88.54;101652.72;107073;1279;71881;-79
2022/01/01 09:23:39;;;;;;;10.40;5.50;;;;;;;12.45;88.38;101645.41;107066;1279;73860;-81
2022/01/01 09:26:06;;;;;;;15.30;6.90;;;;;;;12.49;87.95;101652.00;106859;1282;135757;-82
2022/01/01 09:28:34;;;;;;;14.60;5.90;;;;;;;12.53;88.01;101649.31;107096;1288;61293;-81
2022/01/01 09:31:01;;;;;;;14.20;6.60;;;;;;;12.55;87.88;101653.49;106885;1289;60274;-80
2022/01/01 09:33:29;;;;;;;14.00;4.70;;;;;;;12.58;87.37;101653.20;106769;1290;73536;-81
2022/01/01 09:36:00;;;;;;;14.70;6.10;;;;;;;12.62;87.24;101654.04;106915;1290;72837;-81
2022/01/01 09:38:28;;;;;;;9.80;4.60;;;;;;;12.67;87.22;101655.66;106475;1291;74153;-80
2022/01/01 09:40:55;;;;;;;13.40;4.20;;;;;;;12.71;87.24;101658.07;106819;1290;63043;-80
2022/01/01 09:43:26;;;;;;;10.50;5.30;;;;;;;12.75;86.75;101660.80;107016;1290;59614;-80
2022/01/01 09:45:55;;;;;;;13.60;5.90;;;;;;;12.76;86.53;101654.80;106933;1290;74373;-80
2022/01/01 09:48:23;;;;;;;11.30;6.50;;;;;;;12.78;86.58;101660.14;106884;1290;72695;-80
2022/01/01 09:50:55;;;;;;;14.00;5.50;;;;;;;12.79;86.61;101672.37;106972;1290;73980;-79
2022/01/01 09:53:24;;;;;;;12.80;6.00;;;;;;;12.80;86.62;101669.78;106894;1290;62217;-81
2022/01/01 09:55:52;;;;;;;12.10;4.70;;;;;;;12.81;86.85;101669.84;106916;1291;59619;-81
2022/01/01 09:58:25;;;;;;;13.20;5.80;;;;;;;12.82;86.48;101670.64;106858;1290;74410;-81
2022/01/01 10:00:52;;;;;;;19.40;6.50;;;;;;;12.83;86.54;101676.45;106851;1289;72665;-80
2022/01/01 10:03:29;;;;;;;11.00;5.90;;;;;;;12.83;86.83;101677.27;106889;1290;72869;-81
2022/01/01 10:05:58;;;;;;;12.80;5.60;;;;;;;12.83;86.88;101683.17;106764;1292;61952;-80
2022/01/01 10:08:24;;;;;;;15.90;5.40;;;;;;;12.85;86.84;101681.64;106753;1292;60383;-78
2022/01/01 10:10:53;;;;;;;15.40;5.20;;;;;;;12.88;86.56;101682.16;106917;1290;74375;-77
2022/01/01 10:13:28;;;;;;;12.30;6.20;;;;;;;12.90;86.39;101685.21;106874;1290;71463;-76
2022/01/01 10:15:57;;;;;;;11.80;6.10;;;;;;;12.93;86.41;101681.53;106598;1291;73034;-76
2022/01/01 10:18:28;;;;;;;13.90;6.20;;;;;;;12.95;86.30;101680.99;106872;1290;59842;-76
2022/01/01 10:21:19;;;;;;;19.00;6.60;;;;;;;12.97;85.92;101689.67;106783;1291;60624;-76
2022/01/01 10:23:49;;;;;;;16.00;5.40;;;;;;;12.99;85.83;101686.34;106755;1290;74974;-76
2022/01/01 10:29:14;;;;;;;11.40;5.80;;;;;;;13.07;85.44;101693.34;106892;1290;73297;-76
2022/01/01 10:31:54;;;;;;;13.90;6.20;;;;;;;13.09;84.97;101699.60;106670;1291;61180;-76
2022/01/01 10:34:25;;;;;;;17.70;7.20;;;;;;;13.09;84.66;101690.68;106892;1290;59739;-77
2022/01/01 10:36:54;;;;;;;9.40;5.20;;;;;;;13.11;84.60;101684.08;106689;1290;74295;-76
2022/01/01 10:39:21;;;;;;;10.90;4.60;;;;;;;13.15;84.49;101681.35;106920;1290;71536;-76
2022/01/01 10:41:55;;;;;;;14.00;6.60;;;;;;;13.17;84.30;101679.65;106457;1291;74040;-76
2022/01/01 10:44:38;;;;;;;12.60;5.20;;;;;;;13.22;84.49;101677.15;106550;1290;60656;-76
2022/01/01 10:47:16;;;;;;;12.90;6.00;;;;;;;13.23;84.11;101672.99;106480;1292;61806;-75
2022/01/01 10:52:29;;;;;;;11.80;5.90;;;;;;;13.24;83.84;101674.95;106761;1291;71501;-76
2022/01/01 10:55:00;;;;;;;12.60;7.00;;;;;;;13.26;83.79;101675.36;106601;1290;72924;-76
2022/01/01 10:57:35;;;;;;;11.40;5.50;;;;;;;13.27;83.63;101670.02;106636;1290;62385;-76
2022/01/01 11:00:10;;;;;;;;;;;;;;;13.29;83.42;101670.23;106470;1291;60670;-76
2022/01/01 11:02:41;;;;;;;14.00;6.70;;;;;;;13.32;83.29;101662.31;106907;1290;73404;-76
2022/01/01 11:05:08;;;;;;;13.00;6.00;;;;;;;13.35;83.22;101658.14;106575;1290;72522;-76
2022/01/01 11:07:35;;;;;;;14.40;7.00;;;;;;;13.38;82.99;101657.48;107507;1282;72928;-76
2022/01/01 11:10:02;;;;;;;12.70;5.70;;;;;;;13.42;83.87;101654.53;107440;1284;62273;-76
2022/01/01 11:12:30;;;;;;;14.00;5.70;;;;;;;13.48;83.73;101658.91;107554;1282;60820;-75
2022/01/01 11:15:03;;;;;;;16.60;5.40;;;;;;;13.55;83.59;101657.96;107718;1281;73365;-75
2022/01/01 11:17:31;;;;;;;13.30;6.10;;;;;;;13.62;83.38;101656.28;107664;1282;72394;-76
2022/01/01 11:20:00;;;;;;;9.60;5.10;;;;;;;13.69;83.14;101646.21;107526;1282;74294;-76
2022/01/01 11:22:27;;;;;;;11.00;6.20;;;;;;;13.77;82.67;101646.59;107675;1282;62640;-76
2022/01/01 11:24:55;;;;;;;12.30;4.80;;;;;;;13.83;82.05;101650.14;107638;1282;60603;-76
2022/01/01 11:27:24;;;;;;;11.60;5.50;;;;;;;13.89;81.66;101642.61;107578;1282;74300;-76
2022/01/01 11:29:53;;;;;;;17.60;5.50;;;;;;;13.94;81.35;101641.70;107355;1284;71398;-76
2022/01/01 11:32:22;;;;;;;11.00;5.40;;;;;;;13.97;81.18;101640.23;107536;1284;72969;-77
2022/01/01 11:34:52;;;;;;;10.50;4.80;;;;;;;13.99;81.32;101640.56;107648;1282;60439;-76
2022/01/01 11:37:22;;;;;;;10.10;5.20;;;;;;;13.99;81.10;101636.64;107682;1282;61675;-76
2022/01/01 11:39:55;;;;;;;11.30;4.20;;;;;;;14.00;81.26;101635.33;107624;1282;73774;-77
2022/01/01 11:42:23;;;;;;;9.50;4.40;;;;;;;13.99;81.11;101632.16;107537;1282;71563;-76
2022/01/01 11:44:54;;;;;;;18.10;5.60;;;;;;;14.01;80.89;101635.71;107463;1283;72078;-77
2022/01/01 11:47:23;;;;;;;15.00;6.10;;;;;;;14.07;80.95;101633.09;107489;1285;60222;-77
2022/01/01 11:49:52;;;;;;;13.30;4.80;;;;;;;14.14;80.71;101632.07;107619;1282;59666;-77
2022/01/01 11:52:39;;;;;;;10.60;4.80;;;;;;;14.19;80.38;101633.44;107566;1282;75120;-75
2022/01/01 11:55:12;;;;;;;11.90;4.40;;;;;;;14.18;80.09;101630.73;107501;1284;72400;-76
2022/01/01 11:57:54;;;;;;;10.00;4.20;;;;;;;14.15;80.05;101629.27;107567;1284;72650;-76